sensor_id;sensor_type;location;lat;lon;timestamp;P1;durP1;ratioP1;P2;durP2;ratioP2
13584;SDS011;6863;48.402;9.994;2023-12-22T00:03:32;1.13;;;0.80;;
13584;SDS011;6863;48.402;9.994;2023-12-22T00:05:57;2.13;;;1.30;;
13584;SDS011;6863;48.402;9.994;2023-12-22T00:08:23;0.80;;;0.80;;
13584;SDS011;6863;48.402;9.994;2023-12-22T00:10:49;1.55;;;0.82;;
13584;SDS011;6863;48.402;9.994;2023-12-22T00:13:14;1.63;;;1.00;;
13584;SDS011;6863;48.402;9.994;2023-12-22T00:15:40;1.20;;;1.08;;
13584;SDS011;6863;48.402;9.994;2023-12-22T00:18:07;0.73;;;0.70;;
13584;SDS011;6863;48.402;9.994;2023-12-22T00:20:33;1.55;;;0.82;;
13584;SDS011;6863;48.402;9.994;2023-12-22T00:22:59;0.90;;;0.90;;
13584;SDS011;6863;48.402;9.994;2023-12-22T00:25:25;2.00;;;1.00;;
13584;SDS011;6863;48.402;9.994;2023-12-22T00:27:50;0.87;;;0.80;;
13584;SDS011;6863;48.402;9.994;2023-12-22T00:30:16;1.63;;;1.10;;
13584;SDS011;6863;48.402;9.994;2023-12-22T00:32:41;1.20;;;0.93;;
13584;SDS011;6863;48.402;9.994;2023-12-22T00:35:07;1.20;;;1.00;;
13584;SDS011;6863;48.402;9.994;2023-12-22T00:37:33;2.22;;;0.80;;
13584;SDS011;6863;48.402;9.994;2023-12-22T00:39:59;1.23;;;1.00;;
13584;SDS011;6863;48.402;9.994;2023-12-22T00:42:24;0.85;;;0.85;;
13584;SDS011;6863;48.402;9.994;2023-12-22T00:44:50;1.75;;;0.88;;
13584;SDS011;6863;48.402;9.994;2023-12-22T00:47:16;1.50;;;1.00;;
13584;SDS011;6863;48.402;9.994;2023-12-22T00:49:42;1.10;;;1.00;;
13584;SDS011;6863;48.402;9.994;2023-12-22T00:52:07;1.00;;;0.80;;
13584;SDS011;6863;48.402;9.994;2023-12-22T00:54:33;1.65;;;0.85;;
13584;SDS011;6863;48.402;9.994;2023-12-22T00:56:59;0.82;;;0.82;;
13584;SDS011;6863;48.402;9.994;2023-12-22T00:59:24;1.63;;;1.00;;
13584;SDS011;6863;48.402;9.994;2023-12-22T01:01:50;0.80;;;0.80;;
13584;SDS011;6863;48.402;9.994;2023-12-22T01:04:15;1.33;;;0.80;;
13584;SDS011;6863;48.402;9.994;2023-12-22T01:06:41;1.50;;;1.10;;
13584;SDS011;6863;48.402;9.994;2023-12-22T01:09:07;1.07;;;0.97;;
13584;SDS011;6863;48.402;9.994;2023-12-22T01:11:32;1.37;;;1.27;;
13584;SDS011;6863;48.402;9.994;2023-12-22T01:13:58;2.42;;;1.50;;
13584;SDS011;6863;48.402;9.994;2023-12-22T01:16:24;3.05;;;1.50;;
13584;SDS011;6863;48.402;9.994;2023-12-22T01:18:49;3.60;;;1.70;;
13584;SDS011;6863;48.402;9.994;2023-12-22T01:21:16;2.85;;;1.48;;
13584;SDS011;6863;48.402;9.994;2023-12-22T01:23:42;3.08;;;1.88;;
13584;SDS011;6863;48.402;9.994;2023-12-22T01:26:07;3.03;;;1.60;;
13584;SDS011;6863;48.402;9.994;2023-12-22T01:28:36;3.47;;;1.60;;
13584;SDS011;6863;48.402;9.994;2023-12-22T01:31:02;2.33;;;1.80;;
13584;SDS011;6863;48.402;9.994;2023-12-22T01:33:28;2.80;;;1.65;;
13584;SDS011;6863;48.402;9.994;2023-12-22T01:35:54;4.57;;;1.80;;
13584;SDS011;6863;48.402;9.994;2023-12-22T01:38:20;2.63;;;1.90;;
13584;SDS011;6863;48.402;9.994;2023-12-22T01:40:45;4.18;;;1.80;;
13584;SDS011;6863;48.402;9.994;2023-12-22T01:43:11;2.47;;;1.63;;
13584;SDS011;6863;48.402;9.994;2023-12-22T01:45:38;2.47;;;1.73;;
13584;SDS011;6863;48.402;9.994;2023-12-22T01:48:04;2.13;;;1.80;;
13584;SDS011;6863;48.402;9.994;2023-12-22T01:50:29;2.92;;;1.58;;
13584;SDS011;6863;48.402;9.994;2023-12-22T01:52:56;4.30;;;2.00;;
13584;SDS011;6863;48.402;9.994;2023-12-22T01:55:21;3.25;;;1.83;;
13584;SDS011;6863;48.402;9.994;2023-12-22T01:57:47;3.95;;;2.05;;
13584;SDS011;6863;48.402;9.994;2023-12-22T02:00:14;3.03;;;1.73;;
13584;SDS011;6863;48.402;9.994;2023-12-22T02:02:40;3.00;;;1.73;;
13584;SDS011;6863;48.402;9.994;2023-12-22T02:05:09;2.60;;;1.60;;
13584;SDS011;6863;48.402;9.994;2023-12-22T02:07:36;2.92;;;1.80;;
13584;SDS011;6863;48.402;9.994;2023-12-22T02:10:09;4.72;;;1.90;;
13584;SDS011;6863;48.402;9.994;2023-12-22T02:12:36;3.35;;;1.98;;
13584;SDS011;6863;48.402;9.994;2023-12-22T02:15:01;3.17;;;1.90;;
13584;SDS011;6863;48.402;9.994;2023-12-22T02:17:43;2.65;;;1.90;;
13584;SDS011;6863;48.402;9.994;2023-12-22T02:20:15;3.67;;;1.80;;
13584;SDS011;6863;48.402;9.994;2023-12-22T02:22:41;3.83;;;1.70;;
13584;SDS011;6863;48.402;9.994;2023-12-22T02:25:07;2.80;;;1.50;;
13584;SDS011;6863;48.402;9.994;2023-12-22T02:27:44;1.65;;;1.33;;
13584;SDS011;6863;48.402;9.994;2023-12-22T02:32:55;1.23;;;0.95;;
13584;SDS011;6863;48.402;9.994;2023-12-22T02:35:25;1.20;;;0.90;;
13584;SDS011;6863;48.402;9.994;2023-12-22T02:37:53;1.10;;;0.90;;
13584;SDS011;6863;48.402;9.994;2023-12-22T02:40:21;1.52;;;1.08;;
13584;SDS011;6863;48.402;9.994;2023-12-22T02:42:48;1.15;;;0.85;;
13584;SDS011;6863;48.402;9.994;2023-12-22T02:45:14;2.17;;;0.88;;
13584;SDS011;6863;48.402;9.994;2023-12-22T02:47:41;1.30;;;0.80;;
13584;SDS011;6863;48.402;9.994;2023-12-22T02:50:07;1.43;;;0.97;;
13584;SDS011;6863;48.402;9.994;2023-12-22T02:52:33;1.30;;;0.93;;
13584;SDS011;6863;48.402;9.994;2023-12-22T02:55:00;1.70;;;1.00;;
13584;SDS011;6863;48.402;9.994;2023-12-22T02:57:26;0.98;;;0.88;;
13584;SDS011;6863;48.402;9.994;2023-12-22T02:59:52;1.58;;;1.05;;
13584;SDS011;6863;48.402;9.994;2023-12-22T03:02:18;1.35;;;0.80;;
13584;SDS011;6863;48.402;9.994;2023-12-22T03:04:43;1.27;;;0.80;;
13584;SDS011;6863;48.402;9.994;2023-12-22T03:07:11;1.90;;;1.02;;
13584;SDS011;6863;48.402;9.994;2023-12-22T03:09:37;1.13;;;1.02;;
13584;SDS011;6863;48.402;9.994;2023-12-22T03:12:02;1.38;;;1.10;;
13584;SDS011;6863;48.402;9.994;2023-12-22T03:14:31;1.40;;;1.15;;
13584;SDS011;6863;48.402;9.994;2023-12-22T03:17:01;1.50;;;1.20;;
13584;SDS011;6863;48.402;9.994;2023-12-22T03:19:27;2.20;;;1.23;;
13584;SDS011;6863;48.402;9.994;2023-12-22T03:21:53;2.05;;;1.02;;
13584;SDS011;6863;48.402;9.994;2023-12-22T03:24:19;2.63;;;1.40;;
13584;SDS011;6863;48.402;9.994;2023-12-22T03:26:45;2.50;;;1.27;;
13584;SDS011;6863;48.402;9.994;2023-12-22T03:29:11;2.10;;;1.37;;
13584;SDS011;6863;48.402;9.994;2023-12-22T03:31:37;1.37;;;1.20;;
13584;SDS011;6863;48.402;9.994;2023-12-22T03:34:02;1.45;;;1.35;;
13584;SDS011;6863;48.402;9.994;2023-12-22T03:36:28;1.73;;;1.40;;
13584;SDS011;6863;48.402;9.994;2023-12-22T03:38:53;2.90;;;1.53;;
13584;SDS011;6863;48.402;9.994;2023-12-22T03:41:19;3.07;;;1.50;;
13584;SDS011;6863;48.402;9.994;2023-12-22T03:43:45;2.73;;;1.50;;
13584;SDS011;6863;48.402;9.994;2023-12-22T03:46:10;2.90;;;1.67;;
13584;SDS011;6863;48.402;9.994;2023-12-22T03:48:36;2.33;;;1.40;;
13584;SDS011;6863;48.402;9.994;2023-12-22T03:51:01;2.05;;;1.42;;
13584;SDS011;6863;48.402;9.994;2023-12-22T03:53:27;2.70;;;1.73;;
13584;SDS011;6863;48.402;9.994;2023-12-22T03:55:53;3.30;;;1.60;;
13584;SDS011;6863;48.402;9.994;2023-12-22T03:58:18;2.03;;;1.40;;
13584;SDS011;6863;48.402;9.994;2023-12-22T04:00:44;1.73;;;1.10;;
13584;SDS011;6863;48.402;9.994;2023-12-22T04:03:09;1.90;;;1.27;;
13584;SDS011;6863;48.402;9.994;2023-12-22T04:05:35;1.40;;;1.30;;
13584;SDS011;6863;48.402;9.994;2023-12-22T04:08:00;1.97;;;1.40;;
13584;SDS011;6863;48.402;9.994;2023-12-22T04:10:26;2.47;;;1.10;;
13584;SDS011;6863;48.402;9.994;2023-12-22T04:12:52;1.30;;;1.17;;
13584;SDS011;6863;48.402;9.994;2023-12-22T04:15:17;1.10;;;1.00;;
13584;SDS011;6863;48.402;9.994;2023-12-22T04:17:43;1.70;;;1.00;;
13584;SDS011;6863;48.402;9.994;2023-12-22T04:20:08;2.03;;;1.20;;
13584;SDS011;6863;48.402;9.994;2023-12-22T04:22:34;1.57;;;1.07;;
13584;SDS011;6863;48.402;9.994;2023-12-22T04:25:00;2.77;;;1.30;;
13584;SDS011;6863;48.402;9.994;2023-12-22T04:27:25;2.28;;;1.20;;
13584;SDS011;6863;48.402;9.994;2023-12-22T04:29:51;2.67;;;1.15;;
13584;SDS011;6863;48.402;9.994;2023-12-22T04:32:16;3.60;;;1.10;;
13584;SDS011;6863;48.402;9.994;2023-12-22T04:34:42;2.27;;;1.27;;
13584;SDS011;6863;48.402;9.994;2023-12-22T04:37:08;2.93;;;1.30;;
13584;SDS011;6863;48.402;9.994;2023-12-22T04:39:34;3.33;;;1.50;;
13584;SDS011;6863;48.402;9.994;2023-12-22T04:41:59;2.10;;;1.20;;
13584;SDS011;6863;48.402;9.994;2023-12-22T04:44:25;3.53;;;1.40;;
13584;SDS011;6863;48.402;9.994;2023-12-22T04:46:51;1.57;;;1.30;;
13584;SDS011;6863;48.402;9.994;2023-12-22T04:49:16;1.73;;;1.20;;
13584;SDS011;6863;48.402;9.994;2023-12-22T04:51:42;1.85;;;1.27;;
13584;SDS011;6863;48.402;9.994;2023-12-22T04:54:07;2.53;;;1.40;;
13584;SDS011;6863;48.402;9.994;2023-12-22T04:56:33;3.20;;;1.70;;
13584;SDS011;6863;48.402;9.994;2023-12-22T04:58:59;2.93;;;1.60;;
13584;SDS011;6863;48.402;9.994;2023-12-22T05:01:24;4.40;;;1.83;;
13584;SDS011;6863;48.402;9.994;2023-12-22T05:03:50;3.13;;;1.48;;
13584;SDS011;6863;48.402;9.994;2023-12-22T05:06:16;3.22;;;1.85;;
13584;SDS011;6863;48.402;9.994;2023-12-22T05:08:41;2.67;;;1.73;;
13584;SDS011;6863;48.402;9.994;2023-12-22T05:11:07;2.75;;;1.60;;
13584;SDS011;6863;48.402;9.994;2023-12-22T05:13:33;3.67;;;1.50;;
13584;SDS011;6863;48.402;9.994;2023-12-22T05:16:01;3.05;;;1.77;;
13584;SDS011;6863;48.402;9.994;2023-12-22T05:18:27;3.00;;;1.70;;
13584;SDS011;6863;48.402;9.994;2023-12-22T05:20:52;2.77;;;1.60;;
13584;SDS011;6863;48.402;9.994;2023-12-22T05:23:19;4.55;;;1.50;;
13584;SDS011;6863;48.402;9.994;2023-12-22T05:25:44;2.13;;;1.35;;
13584;SDS011;6863;48.402;9.994;2023-12-22T05:28:10;1.48;;;1.30;;
13584;SDS011;6863;48.402;9.994;2023-12-22T05:30:35;2.90;;;1.53;;
13584;SDS011;6863;48.402;9.994;2023-12-22T05:33:01;3.13;;;1.47;;
13584;SDS011;6863;48.402;9.994;2023-12-22T05:35:27;3.30;;;1.40;;
13584;SDS011;6863;48.402;9.994;2023-12-22T05:37:52;3.47;;;1.55;;
13584;SDS011;6863;48.402;9.994;2023-12-22T05:40:18;2.42;;;1.48;;
13584;SDS011;6863;48.402;9.994;2023-12-22T05:42:43;3.07;;;1.70;;
13584;SDS011;6863;48.402;9.994;2023-12-22T05:45:09;3.00;;;1.70;;
13584;SDS011;6863;48.402;9.994;2023-12-22T05:47:36;3.03;;;1.50;;
13584;SDS011;6863;48.402;9.994;2023-12-22T05:50:02;2.57;;;1.53;;
13584;SDS011;6863;48.402;9.994;2023-12-22T05:52:28;3.00;;;1.55;;
13584;SDS011;6863;48.402;9.994;2023-12-22T05:54:54;1.60;;;1.50;;
13584;SDS011;6863;48.402;9.994;2023-12-22T05:57:19;2.13;;;1.65;;
13584;SDS011;6863;48.402;9.994;2023-12-22T05:59:45;4.40;;;1.60;;
13584;SDS011;6863;48.402;9.994;2023-12-22T06:02:16;4.07;;;1.83;;
13584;SDS011;6863;48.402;9.994;2023-12-22T06:04:48;3.67;;;1.98;;
13584;SDS011;6863;48.402;9.994;2023-12-22T06:07:13;3.33;;;2.00;;
13584;SDS011;6863;48.402;9.994;2023-12-22T06:09:39;6.35;;;2.30;;
13584;SDS011;6863;48.402;9.994;2023-12-22T06:12:05;3.70;;;2.20;;
13584;SDS011;6863;48.402;9.994;2023-12-22T06:14:31;4.80;;;2.30;;
13584;SDS011;6863;48.402;9.994;2023-12-22T06:16:57;3.08;;;1.90;;
13584;SDS011;6863;48.402;9.994;2023-12-22T06:19:23;6.40;;;2.38;;
13584;SDS011;6863;48.402;9.994;2023-12-22T06:21:53;5.20;;;2.65;;
13584;SDS011;6863;48.402;9.994;2023-12-22T06:24:19;4.75;;;2.20;;
13584;SDS011;6863;48.402;9.994;2023-12-22T06:26:44;6.28;;;2.50;;
13584;SDS011;6863;48.402;9.994;2023-12-22T06:29:10;5.83;;;2.10;;
13584;SDS011;6863;48.402;9.994;2023-12-22T06:31:35;5.20;;;2.17;;
13584;SDS011;6863;48.402;9.994;2023-12-22T06:34:01;5.10;;;2.27;;
13584;SDS011;6863;48.402;9.994;2023-12-22T06:36:27;3.47;;;2.15;;
13584;SDS011;6863;48.402;9.994;2023-12-22T06:38:54;4.55;;;2.17;;
13584;SDS011;6863;48.402;9.994;2023-12-22T06:41:24;5.63;;;2.60;;
13584;SDS011;6863;48.402;9.994;2023-12-22T06:43:51;4.85;;;2.60;;
13584;SDS011;6863;48.402;9.994;2023-12-22T06:46:17;5.43;;;2.30;;
13584;SDS011;6863;48.402;9.994;2023-12-22T06:48:44;5.90;;;2.28;;
13584;SDS011;6863;48.402;9.994;2023-12-22T06:54:02;3.28;;;2.00;;
13584;SDS011;6863;48.402;9.994;2023-12-22T06:56:33;3.97;;;1.90;;
13584;SDS011;6863;48.402;9.994;2023-12-22T06:59:00;3.85;;;1.70;;
13584;SDS011;6863;48.402;9.994;2023-12-22T07:01:32;5.85;;;1.98;;
13584;SDS011;6863;48.402;9.994;2023-12-22T07:03:59;3.75;;;1.85;;
13584;SDS011;6863;48.402;9.994;2023-12-22T07:06:25;4.22;;;1.88;;
13584;SDS011;6863;48.402;9.994;2023-12-22T07:11:42;3.17;;;1.90;;
13584;SDS011;6863;48.402;9.994;2023-12-22T07:14:09;3.50;;;2.00;;
13584;SDS011;6863;48.402;9.994;2023-12-22T07:16:35;4.13;;;1.77;;
13584;SDS011;6863;48.402;9.994;2023-12-22T07:19:01;4.45;;;2.00;;
13584;SDS011;6863;48.402;9.994;2023-12-22T07:21:27;4.07;;;1.90;;
13584;SDS011;6863;48.402;9.994;2023-12-22T07:23:53;3.90;;;2.00;;
13584;SDS011;6863;48.402;9.994;2023-12-22T07:26:19;3.03;;;1.93;;
13584;SDS011;6863;48.402;9.994;2023-12-22T07:28:46;2.10;;;1.73;;
13584;SDS011;6863;48.402;9.994;2023-12-22T07:31:12;2.65;;;1.50;;
13584;SDS011;6863;48.402;9.994;2023-12-22T07:33:45;3.15;;;2.10;;
13584;SDS011;6863;48.402;9.994;2023-12-22T07:36:14;3.35;;;1.60;;
13584;SDS011;6863;48.402;9.994;2023-12-22T07:38:40;3.77;;;1.53;;
13584;SDS011;6863;48.402;9.994;2023-12-22T07:41:05;1.70;;;1.43;;
13584;SDS011;6863;48.402;9.994;2023-12-22T07:43:31;3.57;;;1.73;;
13584;SDS011;6863;48.402;9.994;2023-12-22T07:45:57;3.33;;;1.50;;
13584;SDS011;6863;48.402;9.994;2023-12-22T07:48:22;2.60;;;1.60;;
13584;SDS011;6863;48.402;9.994;2023-12-22T07:50:49;3.55;;;1.95;;
13584;SDS011;6863;48.402;9.994;2023-12-22T07:53:14;4.18;;;2.10;;
13584;SDS011;6863;48.402;9.994;2023-12-22T07:55:40;4.10;;;2.08;;
13584;SDS011;6863;48.402;9.994;2023-12-22T07:58:06;4.28;;;2.38;;
13584;SDS011;6863;48.402;9.994;2023-12-22T08:00:32;4.65;;;2.10;;
13584;SDS011;6863;48.402;9.994;2023-12-22T08:02:58;5.07;;;2.40;;
13584;SDS011;6863;48.402;9.994;2023-12-22T08:05:24;5.68;;;2.45;;
13584;SDS011;6863;48.402;9.994;2023-12-22T08:07:49;5.78;;;2.45;;
13584;SDS011;6863;48.402;9.994;2023-12-22T08:10:15;7.70;;;4.27;;
13584;SDS011;6863;48.402;9.994;2023-12-22T08:12:41;7.63;;;2.45;;
13584;SDS011;6863;48.402;9.994;2023-12-22T08:15:07;5.17;;;2.50;;
13584;SDS011;6863;48.402;9.994;2023-12-22T08:17:35;4.43;;;2.60;;
13584;SDS011;6863;48.402;9.994;2023-12-22T08:20:02;4.88;;;2.60;;
13584;SDS011;6863;48.402;9.994;2023-12-22T08:22:28;5.35;;;2.35;;
13584;SDS011;6863;48.402;9.994;2023-12-22T08:24:54;5.67;;;2.40;;
13584;SDS011;6863;48.402;9.994;2023-12-22T08:27:20;5.83;;;2.47;;
13584;SDS011;6863;48.402;9.994;2023-12-22T08:29:45;4.53;;;2.60;;
13584;SDS011;6863;48.402;9.994;2023-12-22T08:32:11;6.07;;;2.78;;
13584;SDS011;6863;48.402;9.994;2023-12-22T08:34:36;5.18;;;2.60;;
13584;SDS011;6863;48.402;9.994;2023-12-22T08:37:02;5.97;;;2.90;;
13584;SDS011;6863;48.402;9.994;2023-12-22T08:39:28;6.67;;;2.70;;
13584;SDS011;6863;48.402;9.994;2023-12-22T08:41:57;5.60;;;2.33;;
13584;SDS011;6863;48.402;9.994;2023-12-22T08:44:22;7.20;;;3.50;;
13584;SDS011;6863;48.402;9.994;2023-12-22T08:46:48;6.80;;;3.10;;
13584;SDS011;6863;48.402;9.994;2023-12-22T08:49:13;6.70;;;3.00;;
13584;SDS011;6863;48.402;9.994;2023-12-22T08:51:39;5.15;;;2.70;;
13584;SDS011;6863;48.402;9.994;2023-12-22T08:54:04;5.55;;;2.63;;
13584;SDS011;6863;48.402;9.994;2023-12-22T08:56:30;6.90;;;3.00;;
13584;SDS011;6863;48.402;9.994;2023-12-22T08:58:56;6.10;;;3.27;;
13584;SDS011;6863;48.402;9.994;2023-12-22T09:01:24;5.80;;;3.00;;
13584;SDS011;6863;48.402;9.994;2023-12-22T09:03:50;5.93;;;2.83;;
13584;SDS011;6863;48.402;9.994;2023-12-22T09:06:18;6.10;;;2.95;;
13584;SDS011;6863;48.402;9.994;2023-12-22T09:08:47;5.93;;;2.58;;
13584;SDS011;6863;48.402;9.994;2023-12-22T09:11:16;5.80;;;2.67;;
13584;SDS011;6863;48.402;9.994;2023-12-22T09:13:43;8.30;;;3.00;;
13584;SDS011;6863;48.402;9.994;2023-12-22T09:16:08;6.93;;;2.50;;
13584;SDS011;6863;48.402;9.994;2023-12-22T09:18:35;6.03;;;2.22;;
13584;SDS011;6863;48.402;9.994;2023-12-22T09:21:01;6.07;;;2.60;;
13584;SDS011;6863;48.402;9.994;2023-12-22T09:23:28;4.95;;;2.28;;
13584;SDS011;6863;48.402;9.994;2023-12-22T09:25:56;3.38;;;2.00;;
13584;SDS011;6863;48.402;9.994;2023-12-22T09:28:23;4.07;;;2.50;;
13584;SDS011;6863;48.402;9.994;2023-12-22T09:30:49;5.67;;;2.40;;
13584;SDS011;6863;48.402;9.994;2023-12-22T09:33:14;4.63;;;2.10;;
13584;SDS011;6863;48.402;9.994;2023-12-22T09:35:40;3.38;;;2.22;;
13584;SDS011;6863;48.402;9.994;2023-12-22T09:38:07;5.85;;;2.30;;
13584;SDS011;6863;48.402;9.994;2023-12-22T09:40:37;7.43;;;2.80;;
13584;SDS011;6863;48.402;9.994;2023-12-22T09:43:04;3.90;;;2.20;;
13584;SDS011;6863;48.402;9.994;2023-12-22T09:45:32;3.83;;;2.22;;
13584;SDS011;6863;48.402;9.994;2023-12-22T09:47:58;5.10;;;2.30;;
13584;SDS011;6863;48.402;9.994;2023-12-22T09:50:25;5.45;;;2.05;;
13584;SDS011;6863;48.402;9.994;2023-12-22T09:52:52;3.00;;;1.85;;
13584;SDS011;6863;48.402;9.994;2023-12-22T09:55:17;4.30;;;2.27;;
13584;SDS011;6863;48.402;9.994;2023-12-22T09:57:46;3.13;;;2.15;;
13584;SDS011;6863;48.402;9.994;2023-12-22T10:00:13;2.47;;;2.00;;
13584;SDS011;6863;48.402;9.994;2023-12-22T10:02:40;3.13;;;2.00;;
13584;SDS011;6863;48.402;9.994;2023-12-22T10:05:08;4.10;;;2.30;;
13584;SDS011;6863;48.402;9.994;2023-12-22T10:07:35;3.20;;;1.92;;
13584;SDS011;6863;48.402;9.994;2023-12-22T10:10:00;3.97;;;2.10;;
13584;SDS011;6863;48.402;9.994;2023-12-22T10:12:27;3.23;;;2.00;;
13584;SDS011;6863;48.402;9.994;2023-12-22T10:14:55;4.27;;;2.00;;
13584;SDS011;6863;48.402;9.994;2023-12-22T10:17:22;3.92;;;1.70;;
13584;SDS011;6863;48.402;9.994;2023-12-22T10:19:48;3.50;;;1.80;;
13584;SDS011;6863;48.402;9.994;2023-12-22T10:22:13;3.93;;;2.10;;
13584;SDS011;6863;48.402;9.994;2023-12-22T10:24:43;4.40;;;2.10;;
13584;SDS011;6863;48.402;9.994;2023-12-22T10:27:12;3.20;;;1.88;;
13584;SDS011;6863;48.402;9.994;2023-12-22T10:29:39;3.58;;;2.20;;
13584;SDS011;6863;48.402;9.994;2023-12-22T10:32:05;3.13;;;1.80;;
13584;SDS011;6863;48.402;9.994;2023-12-22T10:34:32;6.03;;;2.05;;
13584;SDS011;6863;48.402;9.994;2023-12-22T10:37:01;5.50;;;2.38;;
13584;SDS011;6863;48.402;9.994;2023-12-22T10:39:30;4.65;;;2.15;;
13584;SDS011;6863;48.402;9.994;2023-12-22T10:41:57;3.83;;;2.00;;
13584;SDS011;6863;48.402;9.994;2023-12-22T10:44:24;4.18;;;2.22;;
13584;SDS011;6863;48.402;9.994;2023-12-22T10:46:50;4.20;;;2.30;;
13584;SDS011;6863;48.402;9.994;2023-12-22T10:49:16;5.47;;;2.65;;
13584;SDS011;6863;48.402;9.994;2023-12-22T10:51:42;5.13;;;2.45;;
13584;SDS011;6863;48.402;9.994;2023-12-22T10:54:08;6.70;;;2.70;;
13584;SDS011;6863;48.402;9.994;2023-12-22T10:56:34;5.93;;;2.37;;
13584;SDS011;6863;48.402;9.994;2023-12-22T10:58:59;4.97;;;2.30;;
13584;SDS011;6863;48.402;9.994;2023-12-22T11:01:29;4.78;;;2.38;;
13584;SDS011;6863;48.402;9.994;2023-12-22T11:03:57;7.28;;;2.72;;
13584;SDS011;6863;48.402;9.994;2023-12-22T11:06:26;5.63;;;2.63;;
13584;SDS011;6863;48.402;9.994;2023-12-22T11:08:54;5.85;;;2.50;;
13584;SDS011;6863;48.402;9.994;2023-12-22T11:11:32;5.72;;;2.85;;
13584;SDS011;6863;48.402;9.994;2023-12-22T11:14:00;5.82;;;2.67;;
13584;SDS011;6863;48.402;9.994;2023-12-22T11:16:27;6.57;;;3.00;;
13584;SDS011;6863;48.402;9.994;2023-12-22T11:18:54;5.65;;;3.13;;
13584;SDS011;6863;48.402;9.994;2023-12-22T11:21:23;4.68;;;2.45;;
13584;SDS011;6863;48.402;9.994;2023-12-22T11:23:50;4.18;;;2.17;;
13584;SDS011;6863;48.402;9.994;2023-12-22T11:26:17;5.13;;;2.30;;
13584;SDS011;6863;48.402;9.994;2023-12-22T11:28:44;5.80;;;3.20;;
13584;SDS011;6863;48.402;9.994;2023-12-22T11:31:11;5.85;;;3.42;;
13584;SDS011;6863;48.402;9.994;2023-12-22T11:33:38;4.78;;;2.53;;
13584;SDS011;6863;48.402;9.994;2023-12-22T11:36:08;5.40;;;2.90;;
13584;SDS011;6863;48.402;9.994;2023-12-22T11:38:34;4.60;;;2.40;;
13584;SDS011;6863;48.402;9.994;2023-12-22T11:41:00;4.23;;;2.60;;
13584;SDS011;6863;48.402;9.994;2023-12-22T11:43:27;5.07;;;2.20;;
13584;SDS011;6863;48.402;9.994;2023-12-22T11:45:54;3.10;;;2.00;;
13584;SDS011;6863;48.402;9.994;2023-12-22T11:48:21;4.75;;;2.80;;
13584;SDS011;6863;48.402;9.994;2023-12-22T11:50:47;4.63;;;2.97;;
13584;SDS011;6863;48.402;9.994;2023-12-22T11:53:20;4.23;;;2.40;;
13584;SDS011;6863;48.402;9.994;2023-12-22T11:56:02;5.57;;;2.38;;
13584;SDS011;6863;48.402;9.994;2023-12-22T11:58:42;3.88;;;2.00;;
13584;SDS011;6863;48.402;9.994;2023-12-22T12:01:19;2.95;;;1.77;;
13584;SDS011;6863;48.402;9.994;2023-12-22T12:03:50;2.72;;;2.00;;
13584;SDS011;6863;48.402;9.994;2023-12-22T12:08:48;4.22;;;2.70;;
13584;SDS011;6863;48.402;9.994;2023-12-22T12:11:14;3.70;;;2.30;;
13584;SDS011;6863;48.402;9.994;2023-12-22T12:13:43;4.00;;;2.50;;
13584;SDS011;6863;48.402;9.994;2023-12-22T12:16:11;13.65;;;8.80;;
13584;SDS011;6863;48.402;9.994;2023-12-22T12:18:38;4.93;;;3.05;;
13584;SDS011;6863;48.402;9.994;2023-12-22T12:21:05;4.72;;;2.33;;
13584;SDS011;6863;48.402;9.994;2023-12-22T12:23:32;4.57;;;2.70;;
13584;SDS011;6863;48.402;9.994;2023-12-22T12:25:58;3.20;;;2.40;;
13584;SDS011;6863;48.402;9.994;2023-12-22T12:28:25;3.38;;;2.08;;
13584;SDS011;6863;48.402;9.994;2023-12-22T12:31:03;2.80;;;1.92;;
13584;SDS011;6863;48.402;9.994;2023-12-22T12:33:33;3.08;;;2.03;;
13584;SDS011;6863;48.402;9.994;2023-12-22T12:36:00;3.87;;;2.10;;
13584;SDS011;6863;48.402;9.994;2023-12-22T12:41:22;2.33;;;2.00;;
13584;SDS011;6863;48.402;9.994;2023-12-22T12:43:54;3.60;;;2.10;;
13584;SDS011;6863;48.402;9.994;2023-12-22T12:46:21;2.33;;;1.70;;
13584;SDS011;6863;48.402;9.994;2023-12-22T12:48:47;1.35;;;1.20;;
13584;SDS011;6863;48.402;9.994;2023-12-22T12:51:12;1.65;;;1.33;;
13584;SDS011;6863;48.402;9.994;2023-12-22T12:53:38;2.45;;;1.25;;
13584;SDS011;6863;48.402;9.994;2023-12-22T12:56:06;1.92;;;1.40;;
13584;SDS011;6863;48.402;9.994;2023-12-22T12:58:32;2.13;;;1.50;;
13584;SDS011;6863;48.402;9.994;2023-12-22T13:03:26;2.08;;;1.60;;
13584;SDS011;6863;48.402;9.994;2023-12-22T13:05:52;1.70;;;1.40;;
13584;SDS011;6863;48.402;9.994;2023-12-22T13:08:17;9.00;;;1.80;;
13584;SDS011;6863;48.402;9.994;2023-12-22T13:10:43;1.87;;;1.20;;
13584;SDS011;6863;48.402;9.994;2023-12-22T13:13:08;1.83;;;1.30;;
13584;SDS011;6863;48.402;9.994;2023-12-22T13:15:34;1.38;;;1.27;;
13584;SDS011;6863;48.402;9.994;2023-12-22T13:18:00;1.03;;;0.97;;
13584;SDS011;6863;48.402;9.994;2023-12-22T13:20:26;1.10;;;1.10;;
13584;SDS011;6863;48.402;9.994;2023-12-22T13:22:52;1.08;;;0.98;;
13584;SDS011;6863;48.402;9.994;2023-12-22T13:25:18;1.20;;;1.10;;
13584;SDS011;6863;48.402;9.994;2023-12-22T13:27:47;3.30;;;1.57;;
13584;SDS011;6863;48.402;9.994;2023-12-22T13:30:15;1.42;;;1.17;;
13584;SDS011;6863;48.402;9.994;2023-12-22T13:33:06;1.20;;;1.10;;
13584;SDS011;6863;48.402;9.994;2023-12-22T13:35:32;1.30;;;1.20;;
13584;SDS011;6863;48.402;9.994;2023-12-22T13:38:01;1.48;;;1.20;;
13584;SDS011;6863;48.402;9.994;2023-12-22T13:40:30;3.10;;;1.70;;
13584;SDS011;6863;48.402;9.994;2023-12-22T13:43:02;1.42;;;1.20;;
13584;SDS011;6863;48.402;9.994;2023-12-22T13:45:30;2.00;;;1.50;;
13584;SDS011;6863;48.402;9.994;2023-12-22T13:47:56;1.20;;;1.10;;
13584;SDS011;6863;48.402;9.994;2023-12-22T13:50:31;1.65;;;1.10;;
13584;SDS011;6863;48.402;9.994;2023-12-22T13:53:06;1.38;;;1.27;;
13584;SDS011;6863;48.402;9.994;2023-12-22T13:55:35;1.10;;;1.10;;
13584;SDS011;6863;48.402;9.994;2023-12-22T13:58:02;2.13;;;1.40;;
13584;SDS011;6863;48.402;9.994;2023-12-22T14:00:31;1.35;;;1.10;;
13584;SDS011;6863;48.402;9.994;2023-12-22T14:03:06;1.23;;;1.13;;
13584;SDS011;6863;48.402;9.994;2023-12-22T14:05:32;1.10;;;1.00;;
13584;SDS011;6863;48.402;9.994;2023-12-22T14:07:57;1.40;;;1.30;;
13584;SDS011;6863;48.402;9.994;2023-12-22T14:10:23;1.30;;;1.20;;
13584;SDS011;6863;48.402;9.994;2023-12-22T14:12:48;1.20;;;1.20;;
13584;SDS011;6863;48.402;9.994;2023-12-22T14:15:14;1.10;;;1.00;;
13584;SDS011;6863;48.402;9.994;2023-12-22T14:17:40;0.93;;;0.93;;
13584;SDS011;6863;48.402;9.994;2023-12-22T14:20:08;1.17;;;1.10;;
13584;SDS011;6863;48.402;9.994;2023-12-22T14:22:35;1.10;;;1.05;;
13584;SDS011;6863;48.402;9.994;2023-12-22T14:25:02;1.20;;;1.10;;
13584;SDS011;6863;48.402;9.994;2023-12-22T14:27:33;1.30;;;1.20;;
13584;SDS011;6863;48.402;9.994;2023-12-22T14:29:59;1.10;;;1.00;;
13584;SDS011;6863;48.402;9.994;2023-12-22T14:32:25;1.00;;;1.00;;
13584;SDS011;6863;48.402;9.994;2023-12-22T14:34:50;1.10;;;1.10;;
13584;SDS011;6863;48.402;9.994;2023-12-22T14:37:16;0.70;;;0.70;;
13584;SDS011;6863;48.402;9.994;2023-12-22T14:39:42;0.70;;;0.70;;
13584;SDS011;6863;48.402;9.994;2023-12-22T14:42:08;1.50;;;0.75;;
13584;SDS011;6863;48.402;9.994;2023-12-22T14:44:34;0.90;;;0.90;;
13584;SDS011;6863;48.402;9.994;2023-12-22T14:47:00;0.80;;;0.80;;
13584;SDS011;6863;48.402;9.994;2023-12-22T14:49:25;1.40;;;0.63;;
13584;SDS011;6863;48.402;9.994;2023-12-22T14:51:51;0.60;;;0.50;;
13584;SDS011;6863;48.402;9.994;2023-12-22T14:54:19;0.63;;;0.63;;
13584;SDS011;6863;48.402;9.994;2023-12-22T14:56:45;0.80;;;0.80;;
13584;SDS011;6863;48.402;9.994;2023-12-22T14:59:11;1.63;;;0.63;;
13584;SDS011;6863;48.402;9.994;2023-12-22T15:01:39;0.73;;;0.60;;
13584;SDS011;6863;48.402;9.994;2023-12-22T15:04:05;0.70;;;0.70;;
13584;SDS011;6863;48.402;9.994;2023-12-22T15:06:31;0.50;;;0.50;;
13584;SDS011;6863;48.402;9.994;2023-12-22T15:08:57;0.52;;;0.52;;
13584;SDS011;6863;48.402;9.994;2023-12-22T15:11:26;0.30;;;0.30;;
13584;SDS011;6863;48.402;9.994;2023-12-22T15:13:51;0.40;;;0.40;;
13584;SDS011;6863;48.402;9.994;2023-12-22T15:16:17;0.40;;;0.40;;